sensor_id;sensor_type;location;lat;lon;timestamp;P1;durP1;ratioP1;P2;durP2;ratioP2
22166;SDS011;11249;52.468;13.776;2023-04-01T00:01:43;5.10;;;2.70;;
22166;SDS011;11249;52.468;13.776;2023-04-01T00:04:09;4.68;;;2.85;;
22166;SDS011;11249;52.468;13.776;2023-04-01T00:06:36;3.75;;;2.35;;
22166;SDS011;11249;52.468;13.776;2023-04-01T00:09:03;6.80;;;3.15;;
22166;SDS011;11249;52.468;13.776;2023-04-01T00:11:30;3.55;;;2.50;;
22166;SDS011;11249;52.468;13.776;2023-04-01T00:13:58;3.75;;;2.60;;
22166;SDS011;11249;52.468;13.776;2023-04-01T00:16:25;4.70;;;3.40;;
22166;SDS011;11249;52.468;13.776;2023-04-01T00:18:51;5.10;;;3.40;;
22166;SDS011;11249;52.468;13.776;2023-04-01T00:21:19;6.07;;;3.88;;
22166;SDS011;11249;52.468;13.776;2023-04-01T00:26:15;9.35;;;4.03;;
22166;SDS011;11249;52.468;13.776;2023-04-01T00:28:45;8.70;;;3.77;;
22166;SDS011;11249;52.468;13.776;2023-04-01T00:31:12;5.45;;;3.88;;
22166;SDS011;11249;52.468;13.776;2023-04-01T00:33:40;5.13;;;3.65;;
22166;SDS011;11249;52.468;13.776;2023-04-01T00:36:08;6.80;;;4.40;;
22166;SDS011;11249;52.468;13.776;2023-04-01T00:38:39;5.68;;;4.15;;
22166;SDS011;11249;52.468;13.776;2023-04-01T00:41:08;6.65;;;4.30;;
22166;SDS011;11249;52.468;13.776;2023-04-01T00:43:40;5.85;;;4.20;;
22166;SDS011;11249;52.468;13.776;2023-04-01T00:46:08;5.70;;;3.70;;
22166;SDS011;11249;52.468;13.776;2023-04-01T00:48:36;11.98;;;4.03;;
22166;SDS011;11249;52.468;13.776;2023-04-01T00:51:07;7.32;;;4.38;;
22166;SDS011;11249;52.468;13.776;2023-04-01T00:53:41;5.65;;;4.25;;
22166;SDS011;11249;52.468;13.776;2023-04-01T00:58:48;8.80;;;4.47;;
22166;SDS011;11249;52.468;13.776;2023-04-01T01:01:21;5.90;;;4.35;;
22166;SDS011;11249;52.468;13.776;2023-04-01T01:03:50;6.47;;;4.32;;
22166;SDS011;11249;52.468;13.776;2023-04-01T01:06:20;7.80;;;4.60;;
22166;SDS011;11249;52.468;13.776;2023-04-01T01:09:14;6.18;;;4.35;;
22166;SDS011;11249;52.468;13.776;2023-04-01T01:11:54;6.50;;;4.10;;
22166;SDS011;11249;52.468;13.776;2023-04-01T01:17:27;6.30;;;4.32;;
22166;SDS011;11249;52.468;13.776;2023-04-01T01:20:03;6.75;;;4.55;;
22166;SDS011;11249;52.468;13.776;2023-04-01T01:23:04;8.63;;;4.60;;
22166;SDS011;11249;52.468;13.776;2023-04-01T01:26:03;6.50;;;4.03;;
22166;SDS011;11249;52.468;13.776;2023-04-01T01:28:58;8.23;;;4.97;;
22166;SDS011;11249;52.468;13.776;2023-04-01T01:34:40;8.48;;;5.03;;
22166;SDS011;11249;52.468;13.776;2023-04-01T01:37:21;7.45;;;5.28;;
22166;SDS011;11249;52.468;13.776;2023-04-01T01:42:22;8.63;;;5.28;;
22166;SDS011;11249;52.468;13.776;2023-04-01T01:44:52;10.13;;;5.30;;
22166;SDS011;11249;52.468;13.776;2023-04-01T01:47:21;11.43;;;5.97;;
22166;SDS011;11249;52.468;13.776;2023-04-01T01:49:49;9.93;;;6.00;;
22166;SDS011;11249;52.468;13.776;2023-04-01T01:52:18;6.22;;;5.15;;
22166;SDS011;11249;52.468;13.776;2023-04-01T01:54:52;10.98;;;5.72;;
22166;SDS011;11249;52.468;13.776;2023-04-01T01:57:22;9.65;;;5.78;;
22166;SDS011;11249;52.468;13.776;2023-04-01T01:59:52;7.80;;;5.20;;
22166;SDS011;11249;52.468;13.776;2023-04-01T02:02:24;10.68;;;5.88;;
22166;SDS011;11249;52.468;13.776;2023-04-01T02:04:52;6.82;;;5.45;;
22166;SDS011;11249;52.468;13.776;2023-04-01T02:07:22;7.57;;;5.20;;
22166;SDS011;11249;52.468;13.776;2023-04-01T02:09:53;10.98;;;5.93;;
22166;SDS011;11249;52.468;13.776;2023-04-01T02:12:20;12.05;;;5.05;;
22166;SDS011;11249;52.468;13.776;2023-04-01T02:15:00;7.32;;;5.70;;
22166;SDS011;11249;52.468;13.776;2023-04-01T02:17:34;10.20;;;5.85;;
22166;SDS011;11249;52.468;13.776;2023-04-01T02:20:11;9.40;;;5.80;;
22166;SDS011;11249;52.468;13.776;2023-04-01T02:22:57;9.93;;;5.90;;
22166;SDS011;11249;52.468;13.776;2023-04-01T02:25:29;10.10;;;6.75;;
22166;SDS011;11249;52.468;13.776;2023-04-01T02:28:00;11.27;;;6.72;;
22166;SDS011;11249;52.468;13.776;2023-04-01T02:30:34;9.40;;;6.32;;
22166;SDS011;11249;52.468;13.776;2023-04-01T02:33:04;11.02;;;6.95;;
22166;SDS011;11249;52.468;13.776;2023-04-01T02:35:33;10.50;;;6.63;;
22166;SDS011;11249;52.468;13.776;2023-04-01T02:40:29;12.52;;;7.75;;
22166;SDS011;11249;52.468;13.776;2023-04-01T02:42:56;13.45;;;7.55;;
22166;SDS011;11249;52.468;13.776;2023-04-01T02:45:22;13.57;;;7.60;;
22166;SDS011;11249;52.468;13.776;2023-04-01T02:47:49;12.70;;;7.50;;
22166;SDS011;11249;52.468;13.776;2023-04-01T02:50:16;10.38;;;7.55;;
22166;SDS011;11249;52.468;13.776;2023-04-01T02:52:43;11.48;;;7.75;;
22166;SDS011;11249;52.468;13.776;2023-04-01T02:55:09;13.48;;;8.25;;
22166;SDS011;11249;52.468;13.776;2023-04-01T02:57:36;13.88;;;8.73;;
22166;SDS011;11249;52.468;13.776;2023-04-01T03:00:03;13.63;;;9.15;;
22166;SDS011;11249;52.468;13.776;2023-04-01T03:02:30;13.35;;;8.85;;
22166;SDS011;11249;52.468;13.776;2023-04-01T03:04:57;13.63;;;9.13;;
22166;SDS011;11249;52.468;13.776;2023-04-01T03:07:24;14.93;;;9.38;;
22166;SDS011;11249;52.468;13.776;2023-04-01T03:09:50;11.32;;;7.95;;
22166;SDS011;11249;52.468;13.776;2023-04-01T03:12:17;13.73;;;9.88;;
22166;SDS011;11249;52.468;13.776;2023-04-01T03:14:44;14.65;;;8.85;;
22166;SDS011;11249;52.468;13.776;2023-04-01T03:17:11;15.95;;;9.50;;
22166;SDS011;11249;52.468;13.776;2023-04-01T03:19:37;16.25;;;9.10;;
22166;SDS011;11249;52.468;13.776;2023-04-01T03:22:04;12.15;;;9.02;;
22166;SDS011;11249;52.468;13.776;2023-04-01T03:24:31;15.65;;;9.27;;
22166;SDS011;11249;52.468;13.776;2023-04-01T03:26:57;14.30;;;9.93;;
22166;SDS011;11249;52.468;13.776;2023-04-01T03:29:24;12.00;;;8.45;;
22166;SDS011;11249;52.468;13.776;2023-04-01T03:31:51;17.83;;;9.98;;
22166;SDS011;11249;52.468;13.776;2023-04-01T03:34:21;12.38;;;8.73;;
22166;SDS011;11249;52.468;13.776;2023-04-01T03:36:47;12.68;;;9.20;;
22166;SDS011;11249;52.468;13.776;2023-04-01T03:39:14;14.18;;;9.93;;
22166;SDS011;11249;52.468;13.776;2023-04-01T03:41:45;15.85;;;10.23;;
22166;SDS011;11249;52.468;13.776;2023-04-01T03:44:12;16.40;;;10.27;;
22166;SDS011;11249;52.468;13.776;2023-04-01T03:46:39;15.38;;;10.15;;
22166;SDS011;11249;52.468;13.776;2023-04-01T03:49:07;16.10;;;9.77;;
22166;SDS011;11249;52.468;13.776;2023-04-01T03:51:38;13.90;;;9.00;;
22166;SDS011;11249;52.468;13.776;2023-04-01T03:54:06;14.45;;;9.48;;
22166;SDS011;11249;52.468;13.776;2023-04-01T03:56:33;15.55;;;10.43;;
22166;SDS011;11249;52.468;13.776;2023-04-01T03:59:03;19.35;;;10.88;;
22166;SDS011;11249;52.468;13.776;2023-04-01T04:01:32;14.98;;;10.18;;
22166;SDS011;11249;52.468;13.776;2023-04-01T04:03:59;15.85;;;10.23;;
22166;SDS011;11249;52.468;13.776;2023-04-01T04:06:26;14.80;;;10.27;;
22166;SDS011;11249;52.468;13.776;2023-04-01T04:08:54;15.73;;;9.85;;
22166;SDS011;11249;52.468;13.776;2023-04-01T04:11:21;17.55;;;10.75;;
22166;SDS011;11249;52.468;13.776;2023-04-01T04:13:48;20.02;;;11.52;;
22166;SDS011;11249;52.468;13.776;2023-04-01T04:16:15;16.80;;;11.23;;
22166;SDS011;11249;52.468;13.776;2023-04-01T04:18:43;16.65;;;9.73;;
22166;SDS011;11249;52.468;13.776;2023-04-01T04:21:13;18.13;;;10.13;;
22166;SDS011;11249;52.468;13.776;2023-04-01T04:23:41;16.45;;;10.32;;
22166;SDS011;11249;52.468;13.776;2023-04-01T04:26:10;15.18;;;10.15;;
22166;SDS011;11249;52.468;13.776;2023-04-01T04:28:38;18.55;;;11.05;;
22166;SDS011;11249;52.468;13.776;2023-04-01T04:31:05;17.55;;;9.70;;
22166;SDS011;11249;52.468;13.776;2023-04-01T04:33:32;15.25;;;10.20;;
22166;SDS011;11249;52.468;13.776;2023-04-01T04:36:01;17.00;;;10.77;;
22166;SDS011;11249;52.468;13.776;2023-04-01T04:38:29;17.60;;;10.13;;
22166;SDS011;11249;52.468;13.776;2023-04-01T04:40:56;18.25;;;11.93;;
22166;SDS011;11249;52.468;13.776;2023-04-01T04:43:24;19.15;;;10.35;;
22166;SDS011;11249;52.468;13.776;2023-04-01T04:45:50;13.00;;;8.98;;
22166;SDS011;11249;52.468;13.776;2023-04-01T04:48:17;18.17;;;10.65;;
22166;SDS011;11249;52.468;13.776;2023-04-01T04:50:46;19.88;;;11.10;;
22166;SDS011;11249;52.468;13.776;2023-04-01T04:53:17;16.48;;;10.18;;
22166;SDS011;11249;52.468;13.776;2023-04-01T04:55:45;17.50;;;10.23;;
22166;SDS011;11249;52.468;13.776;2023-04-01T04:58:13;13.65;;;9.55;;
22166;SDS011;11249;52.468;13.776;2023-04-01T05:00:40;15.15;;;9.57;;
22166;SDS011;11249;52.468;13.776;2023-04-01T05:03:07;17.13;;;10.02;;
22166;SDS011;11249;52.468;13.776;2023-04-01T05:05:35;16.30;;;9.57;;
22166;SDS011;11249;52.468;13.776;2023-04-01T05:08:02;23.27;;;11.82;;
22166;SDS011;11249;52.468;13.776;2023-04-01T05:10:29;16.98;;;9.95;;
22166;SDS011;11249;52.468;13.776;2023-04-01T05:12:57;18.00;;;10.13;;
22166;SDS011;11249;52.468;13.776;2023-04-01T05:15:24;15.65;;;9.23;;
22166;SDS011;11249;52.468;13.776;2023-04-01T05:17:51;14.93;;;8.65;;
22166;SDS011;11249;52.468;13.776;2023-04-01T05:20:18;16.08;;;9.13;;
22166;SDS011;11249;52.468;13.776;2023-04-01T05:22:44;17.15;;;10.73;;
22166;SDS011;11249;52.468;13.776;2023-04-01T05:25:11;16.10;;;10.60;;
22166;SDS011;11249;52.468;13.776;2023-04-01T05:27:38;17.67;;;10.50;;
22166;SDS011;11249;52.468;13.776;2023-04-01T05:30:05;17.02;;;9.90;;
22166;SDS011;11249;52.468;13.776;2023-04-01T05:32:32;15.07;;;9.40;;
22166;SDS011;11249;52.468;13.776;2023-04-01T05:34:59;14.32;;;9.32;;
22166;SDS011;11249;52.468;13.776;2023-04-01T05:37:26;17.30;;;11.25;;
22166;SDS011;11249;52.468;13.776;2023-04-01T05:39:52;17.83;;;10.48;;
22166;SDS011;11249;52.468;13.776;2023-04-01T05:42:19;16.17;;;9.45;;
22166;SDS011;11249;52.468;13.776;2023-04-01T05:44:46;16.52;;;9.05;;
22166;SDS011;11249;52.468;13.776;2023-04-01T05:47:12;16.05;;;9.52;;
22166;SDS011;11249;52.468;13.776;2023-04-01T05:49:39;15.95;;;8.80;;
22166;SDS011;11249;52.468;13.776;2023-04-01T05:52:06;18.73;;;9.40;;
22166;SDS011;11249;52.468;13.776;2023-04-01T05:54:33;15.88;;;8.60;;
22166;SDS011;11249;52.468;13.776;2023-04-01T05:57:00;14.68;;;8.35;;
22166;SDS011;11249;52.468;13.776;2023-04-01T05:59:26;13.40;;;8.52;;
22166;SDS011;11249;52.468;13.776;2023-04-01T06:01:53;17.02;;;9.05;;
22166;SDS011;11249;52.468;13.776;2023-04-01T06:04:20;13.50;;;8.18;;
22166;SDS011;11249;52.468;13.776;2023-04-01T06:06:47;14.20;;;8.82;;
22166;SDS011;11249;52.468;13.776;2023-04-01T06:09:15;15.95;;;8.63;;
22166;SDS011;11249;52.468;13.776;2023-04-01T06:12:07;14.20;;;8.45;;
22166;SDS011;11249;52.468;13.776;2023-04-01T06:14:57;14.80;;;8.07;;
22166;SDS011;11249;52.468;13.776;2023-04-01T06:24:05;11.98;;;7.38;;
22166;SDS011;11249;52.468;13.776;2023-04-01T06:27:01;15.98;;;8.25;;
22166;SDS011;11249;52.468;13.776;2023-04-01T06:30:02;13.25;;;8.23;;
22166;SDS011;11249;52.468;13.776;2023-04-01T06:32:55;12.43;;;7.82;;
22166;SDS011;11249;52.468;13.776;2023-04-01T06:35:53;16.25;;;8.98;;
22166;SDS011;11249;52.468;13.776;2023-04-01T06:38:52;17.23;;;8.30;;
22166;SDS011;11249;52.468;13.776;2023-04-01T06:41:56;12.50;;;8.25;;
22166;SDS011;11249;52.468;13.776;2023-04-01T06:44:37;11.07;;;7.72;;
22166;SDS011;11249;52.468;13.776;2023-04-01T06:47:28;15.52;;;8.50;;
22166;SDS011;11249;52.468;13.776;2023-04-01T06:50:30;15.55;;;8.02;;
22166;SDS011;11249;52.468;13.776;2023-04-01T06:53:03;20.17;;;9.47;;
22166;SDS011;11249;52.468;13.776;2023-04-01T06:58:19;21.52;;;9.52;;
22166;SDS011;11249;52.468;13.776;2023-04-01T07:00:49;15.77;;;9.40;;
22166;SDS011;11249;52.468;13.776;2023-04-01T07:06:12;14.02;;;10.27;;
22166;SDS011;11249;52.468;13.776;2023-04-01T07:08:45;14.77;;;8.90;;
22166;SDS011;11249;52.468;13.776;2023-04-01T07:11:22;15.32;;;8.45;;
22166;SDS011;11249;52.468;13.776;2023-04-01T07:13:54;13.15;;;8.07;;
22166;SDS011;11249;52.468;13.776;2023-04-01T07:16:36;16.45;;;9.85;;
22166;SDS011;11249;52.468;13.776;2023-04-01T07:19:18;17.30;;;8.90;;
22166;SDS011;11249;52.468;13.776;2023-04-01T07:22:00;18.60;;;8.98;;
22166;SDS011;11249;52.468;13.776;2023-04-01T07:24:40;13.38;;;9.02;;
22166;SDS011;11249;52.468;13.776;2023-04-01T07:27:12;11.35;;;8.23;;
22166;SDS011;11249;52.468;13.776;2023-04-01T07:29:40;13.75;;;7.88;;
22166;SDS011;11249;52.468;13.776;2023-04-01T07:35:00;10.32;;;6.70;;
22166;SDS011;11249;52.468;13.776;2023-04-01T07:54:32;6.47;;;5.70;;
22166;SDS011;11249;52.468;13.776;2023-04-01T07:57:19;5.40;;;4.82;;
22166;SDS011;11249;52.468;13.776;2023-04-01T07:59:58;4.18;;;3.75;;
22166;SDS011;11249;52.468;13.776;2023-04-01T08:05:27;6.57;;;4.88;;
22166;SDS011;11249;52.468;13.776;2023-04-01T08:10:55;4.68;;;4.18;;
22166;SDS011;11249;52.468;13.776;2023-04-01T08:16:52;3.47;;;2.88;;
22166;SDS011;11249;52.468;13.776;2023-04-01T08:19:31;2.72;;;2.53;;
22166;SDS011;11249;52.468;13.776;2023-04-01T08:22:57;3.95;;;2.97;;
22166;SDS011;11249;52.468;13.776;2023-04-01T08:25:10;3.35;;;2.83;;
22166;SDS011;11249;52.468;13.776;2023-04-01T08:27:45;2.00;;;1.80;;
22166;SDS011;11249;52.468;13.776;2023-04-01T08:30:18;2.47;;;2.28;;
22166;SDS011;11249;52.468;13.776;2023-04-01T08:33:34;2.17;;;1.98;;
22166;SDS011;11249;52.468;13.776;2023-04-01T08:35:48;4.22;;;3.10;;
22166;SDS011;11249;52.468;13.776;2023-04-01T08:38:23;3.20;;;2.90;;
22166;SDS011;11249;52.468;13.776;2023-04-01T08:41:01;6.32;;;3.65;;
22166;SDS011;11249;52.468;13.776;2023-04-01T08:43:51;9.63;;;5.40;;
22166;SDS011;11249;52.468;13.776;2023-04-01T08:49:28;10.10;;;6.65;;
22166;SDS011;11249;52.468;13.776;2023-04-01T08:55:02;9.57;;;6.63;;
22166;SDS011;11249;52.468;13.776;2023-04-01T08:58:02;11.52;;;8.20;;
22166;SDS011;11249;52.468;13.776;2023-04-01T09:00:54;15.52;;;8.50;;
22166;SDS011;11249;52.468;13.776;2023-04-01T09:06:29;14.25;;;9.40;;
22166;SDS011;11249;52.468;13.776;2023-04-01T09:20:39;10.02;;;7.82;;
22166;SDS011;11249;52.468;13.776;2023-04-01T09:23:32;17.35;;;9.68;;
22166;SDS011;11249;52.468;13.776;2023-04-01T09:26:08;9.15;;;7.90;;
22166;SDS011;11249;52.468;13.776;2023-04-01T09:28:56;11.95;;;8.15;;
22166;SDS011;11249;52.468;13.776;2023-04-01T09:34:39;12.52;;;8.20;;
22166;SDS011;11249;52.468;13.776;2023-04-01T09:37:17;12.48;;;8.73;;
22166;SDS011;11249;52.468;13.776;2023-04-01T09:42:42;14.80;;;8.45;;
22166;SDS011;11249;52.468;13.776;2023-04-01T09:50:52;9.93;;;7.30;;
22166;SDS011;11249;52.468;13.776;2023-04-01T09:53:28;11.02;;;7.70;;
22166;SDS011;11249;52.468;13.776;2023-04-01T10:04:23;7.63;;;5.85;;
22166;SDS011;11249;52.468;13.776;2023-04-01T10:16:21;8.60;;;5.82;;
22166;SDS011;11249;52.468;13.776;2023-04-01T10:19:22;9.82;;;6.88;;
22166;SDS011;11249;52.468;13.776;2023-04-01T10:22:16;8.20;;;5.60;;
22166;SDS011;11249;52.468;13.776;2023-04-01T10:28:53;8.05;;;5.30;;
22166;SDS011;11249;52.468;13.776;2023-04-01T10:34:19;7.47;;;4.95;;
22166;SDS011;11249;52.468;13.776;2023-04-01T10:37:34;6.43;;;4.72;;
22166;SDS011;11249;52.468;13.776;2023-04-01T10:43:28;6.95;;;4.97;;
22166;SDS011;11249;52.468;13.776;2023-04-01T10:46:25;7.85;;;4.85;;
22166;SDS011;11249;52.468;13.776;2023-04-01T10:52:11;5.13;;;4.47;;
22166;SDS011;11249;52.468;13.776;2023-04-01T11:03:46;7.80;;;4.57;;
22166;SDS011;11249;52.468;13.776;2023-04-01T11:12:52;4.80;;;3.58;;
22166;SDS011;11249;52.468;13.776;2023-04-01T11:15:56;7.32;;;4.55;;
22166;SDS011;11249;52.468;13.776;2023-04-01T11:18:37;5.63;;;4.38;;
22166;SDS011;11249;52.468;13.776;2023-04-01T11:27:01;5.70;;;4.57;;
22166;SDS011;11249;52.468;13.776;2023-04-01T11:30:02;7.05;;;5.82;;
22166;SDS011;11249;52.468;13.776;2023-04-01T11:32:38;12.70;;;6.75;;
22166;SDS011;11249;52.468;13.776;2023-04-01T11:38:07;7.07;;;6.05;;
22166;SDS011;11249;52.468;13.776;2023-04-01T11:40:47;9.05;;;6.78;;
22166;SDS011;11249;52.468;13.776;2023-04-01T11:43:32;10.95;;;7.07;;
22166;SDS011;11249;52.468;13.776;2023-04-01T11:46:33;8.27;;;7.10;;
22166;SDS011;11249;52.468;13.776;2023-04-01T11:49:33;10.27;;;6.85;;
22166;SDS011;11249;52.468;13.776;2023-04-01T11:55:37;7.78;;;6.05;;
22166;SDS011;11249;52.468;13.776;2023-04-01T12:06:42;6.43;;;5.82;;
22166;SDS011;11249;52.468;13.776;2023-04-01T12:14:43;7.97;;;6.18;;
22166;SDS011;11249;52.468;13.776;2023-04-01T12:20:36;7.97;;;4.78;;
22166;SDS011;11249;52.468;13.776;2023-04-01T12:23:32;7.20;;;4.88;;
22166;SDS011;11249;52.468;13.776;2023-04-01T12:26:10;6.38;;;5.47;;
22166;SDS011;11249;52.468;13.776;2023-04-01T12:28:59;6.75;;;4.90;;
22166;SDS011;11249;52.468;13.776;2023-04-01T12:31:37;5.68;;;4.70;;
22166;SDS011;11249;52.468;13.776;2023-04-01T12:37:35;7.90;;;5.00;;
22166;SDS011;11249;52.468;13.776;2023-04-01T12:42:57;8.82;;;5.68;;
22166;SDS011;11249;52.468;13.776;2023-04-01T12:45:33;7.55;;;5.43;;
22166;SDS011;11249;52.468;13.776;2023-04-01T12:48:05;8.27;;;6.60;;
22166;SDS011;11249;52.468;13.776;2023-04-01T12:53:37;8.05;;;5.95;;
22166;SDS011;11249;52.468;13.776;2023-04-01T12:59:19;5.40;;;4.60;;
22166;SDS011;11249;52.468;13.776;2023-04-01T13:02:11;6.38;;;5.05;;
22166;SDS011;11249;52.468;13.776;2023-04-01T13:04:56;6.70;;;4.80;;
22166;SDS011;11249;52.468;13.776;2023-04-01T13:10:46;5.88;;;4.95;;
22166;SDS011;11249;52.468;13.776;2023-04-01T13:13:31;6.22;;;5.10;;
22166;SDS011;11249;52.468;13.776;2023-04-01T13:16:17;6.47;;;4.18;;
22166;SDS011;11249;52.468;13.776;2023-04-01T13:18:57;6.32;;;4.78;;
22166;SDS011;11249;52.468;13.776;2023-04-01T13:21:34;6.10;;;4.90;;
22166;SDS011;11249;52.468;13.776;2023-04-01T13:24:25;5.32;;;4.57;;
22166;SDS011;11249;52.468;13.776;2023-04-01T13:27:17;4.22;;;3.83;;
22166;SDS011;11249;52.468;13.776;2023-04-01T13:32:32;5.32;;;4.13;;
22166;SDS011;11249;52.468;13.776;2023-04-01T13:35:30;5.07;;;3.83;;
22166;SDS011;11249;52.468;13.776;2023-04-01T13:38:30;5.22;;;3.30;;
22166;SDS011;11249;52.468;13.776;2023-04-01T13:41:11;3.75;;;3.30;;
22166;SDS011;11249;52.468;13.776;2023-04-01T13:44:05;5.95;;;4.05;;
22166;SDS011;11249;52.468;13.776;2023-04-01T13:49:31;7.45;;;4.10;;
22166;SDS011;11249;52.468;13.776;2023-04-01T13:55:00;8.20;;;4.50;;
22166;SDS011;11249;52.468;13.776;2023-04-01T13:58:05;6.05;;;4.03;;
22166;SDS011;11249;52.468;13.776;2023-04-01T14:03:38;4.18;;;3.20;;
22166;SDS011;11249;52.468;13.776;2023-04-01T14:06:31;3.33;;;2.70;;
22166;SDS011;11249;52.468;13.776;2023-04-01T14:12:04;4.60;;;2.90;;
22166;SDS011;11249;52.468;13.776;2023-04-01T14:14:46;5.45;;;2.92;;
22166;SDS011;11249;52.468;13.776;2023-04-01T14:20:27;4.35;;;2.15;;
22166;SDS011;11249;52.468;13.776;2023-04-01T14:26:20;3.28;;;2.13;;
22166;SDS011;11249;52.468;13.776;2023-04-01T14:29:04;2.80;;;1.85;;
22166;SDS011;11249;52.468;13.776;2023-04-01T14:51:28;5.65;;;3.13;;
22166;SDS011;11249;52.468;13.776;2023-04-01T14:56:44;3.08;;;2.13;;
22166;SDS011;11249;52.468;13.776;2023-04-01T14:59:17;3.13;;;2.80;;
22166;SDS011;11249;52.468;13.776;2023-04-01T15:01:55;4.47;;;2.20;;
22166;SDS011;11249;52.468;13.776;2023-04-01T15:13:15;4.88;;;3.72;;
22166;SDS011;11249;52.468;13.776;2023-04-01T15:18:40;7.45;;;3.65;;
22166;SDS011;11249;52.468;13.776;2023-04-01T15:21:32;4.82;;;3.60;;
22166;SDS011;11249;52.468;13.776;2023-04-01T15:24:25;5.95;;;3.65;;
22166;SDS011;11249;52.468;13.776;2023-04-01T15:27:16;4.50;;;3.30;;
22166;SDS011;11249;52.468;13.776;2023-04-01T15:32:58;5.00;;;3.03;;
22166;SDS011;11249;52.468;13.776;2023-04-01T15:35:57;6.80;;;3.70;;
22166;SDS011;11249;52.468;13.776;2023-04-01T15:39:00;4.80;;;3.42;;
22166;SDS011;11249;52.468;13.776;2023-04-01T15:50:07;5.22;;;3.80;;
22166;SDS011;11249;52.468;13.776;2023-04-01T15:55:53;5.28;;;3.30;;
22166;SDS011;11249;52.468;13.776;2023-04-01T16:01:39;6.95;;;4.53;;
22166;SDS011;11249;52.468;13.776;2023-04-01T16:07:47;7.10;;;5.18;;
22166;SDS011;11249;52.468;13.776;2023-04-01T16:10:25;8.80;;;5.30;;
22166;SDS011;11249;52.468;13.776;2023-04-01T16:16:19;5.57;;;4.70;;
22166;SDS011;11249;52.468;13.776;2023-04-01T16:19:06;8.13;;;4.70;;
22166;SDS011;11249;52.468;13.776;2023-04-01T16:21:58;9.93;;;5.18;;
22166;SDS011;11249;52.468;13.776;2023-04-01T16:24:51;8.30;;;5.18;;
22166;SDS011;11249;52.468;13.776;2023-04-01T16:27:43;5.20;;;4.53;;
22166;SDS011;11249;52.468;13.776;2023-04-01T16:30:37;4.57;;;4.13;;
22166;SDS011;11249;52.468;13.776;2023-04-01T16:33:12;4.60;;;4.03;;
22166;SDS011;11249;52.468;13.776;2023-04-01T16:41:41;6.65;;;4.47;;
22166;SDS011;11249;52.468;13.776;2023-04-01T16:43:53;5.20;;;3.92;;
22166;SDS011;11249;52.468;13.776;2023-04-01T16:46:32;5.65;;;3.65;;
22166;SDS011;11249;52.468;13.776;2023-04-01T16:51:44;5.57;;;4.00;;
22166;SDS011;11249;52.468;13.776;2023-04-01T16:56:49;8.32;;;5.30;;
22166;SDS011;11249;52.468;13.776;2023-04-01T16:59:29;8.48;;;5.22;;
22166;SDS011;11249;52.468;13.776;2023-04-01T17:10:24;6.10;;;3.85;;
22166;SDS011;11249;52.468;13.776;2023-04-01T17:15:40;8.60;;;4.93;;
22166;SDS011;11249;52.468;13.776;2023-04-01T17:20:59;9.52;;;5.03;;
22166;SDS011;11249;52.468;13.776;2023-04-01T17:23:35;6.43;;;4.97;;
22166;SDS011;11249;52.468;13.776;2023-04-01T17:29:23;10.52;;;5.25;;
22166;SDS011;11249;52.468;13.776;2023-04-01T17:32:12;9.95;;;5.47;;
22166;SDS011;11249;52.468;13.776;2023-04-01T17:37:39;8.23;;;5.03;;
22166;SDS011;11249;52.468;13.776;2023-04-01T17:43:09;7.40;;;4.93;;
22166;SDS011;11249;52.468;13.776;2023-04-01T17:51:24;6.25;;;5.43;;
22166;SDS011;11249;52.468;13.776;2023-04-01T17:54:20;8.18;;;5.63;;
22166;SDS011;11249;52.468;13.776;2023-04-01T17:57:04;7.70;;;5.40;;
22166;SDS011;11249;52.468;13.776;2023-04-01T17:59:54;6.88;;;5.80;;
22166;SDS011;11249;52.468;13.776;2023-04-01T18:05:52;8.15;;;5.75;;
22166;SDS011;11249;52.468;13.776;2023-04-01T18:08:38;7.88;;;5.93;;
22166;SDS011;11249;52.468;13.776;2023-04-01T18:19:46;7.47;;;5.35;;
22166;SDS011;11249;52.468;13.776;2023-04-01T18:22:26;8.23;;;5.97;;
22166;SDS011;11249;52.468;13.776;2023-04-01T18:30:51;7.80;;;5.70;;
22166;SDS011;11249;52.468;13.776;2023-04-01T18:33:48;8.38;;;5.32;;
22166;SDS011;11249;52.468;13.776;2023-04-01T18:36:21;7.90;;;5.68;;
22166;SDS011;11249;52.468;13.776;2023-04-01T18:39:03;9.25;;;5.78;;
22166;SDS011;11249;52.468;13.776;2023-04-01T18:41:48;10.43;;;6.57;;
22166;SDS011;11249;52.468;13.776;2023-04-01T18:44:30;10.45;;;6.30;;
22166;SDS011;11249;52.468;13.776;2023-04-01T18:50:24;10.43;;;6.45;;
22166;SDS011;11249;52.468;13.776;2023-04-01T18:56:13;11.88;;;6.90;;
22166;SDS011;11249;52.468;13.776;2023-04-01T18:58:59;10.27;;;6.60;;
22166;SDS011;11249;52.468;13.776;2023-04-01T19:01:55;8.02;;;6.70;;
22166;SDS011;11249;52.468;13.776;2023-04-01T19:04:31;7.43;;;5.85;;
22166;SDS011;11249;52.468;13.776;2023-04-01T19:10:13;9.73;;;6.35;;
22166;SDS011;11249;52.468;13.776;2023-04-01T19:13:06;9.60;;;6.82;;
22166;SDS011;11249;52.468;13.776;2023-04-01T19:24:22;10.48;;;6.93;;
22166;SDS011;11249;52.468;13.776;2023-04-01T19:27:25;12.02;;;6.88;;
22166;SDS011;11249;52.468;13.776;2023-04-01T19:30:13;9.73;;;7.07;;
22166;SDS011;11249;52.468;13.776;2023-04-01T19:42:02;11.98;;;7.68;;
22166;SDS011;11249;52.468;13.776;2023-04-01T19:47:17;15.98;;;8.45;;
22166;SDS011;11249;52.468;13.776;2023-04-01T19:50:04;16.70;;;9.65;;
22166;SDS011;11249;52.468;13.776;2023-04-01T19:52:33;14.38;;;9.27;;
22166;SDS011;11249;52.468;13.776;2023-04-01T20:06:08;18.13;;;10.60;;
22166;SDS011;11249;52.468;13.776;2023-04-01T20:11:38;17.48;;;11.00;;
22166;SDS011;11249;52.468;13.776;2023-04-01T20:17:12;17.50;;;11.10;;
22166;SDS011;11249;52.468;13.776;2023-04-01T20:19:45;18.52;;;10.32;;
22166;SDS011;11249;52.468;13.776;2023-04-01T20:24:51;18.15;;;11.20;;
22166;SDS011;11249;52.468;13.776;2023-04-01T20:27:22;21.65;;;11.25;;
22166;SDS011;11249;52.468;13.776;2023-04-01T20:33:06;24.38;;;11.88;;
22166;SDS011;11249;52.468;13.776;2023-04-01T20:41:45;20.58;;;11.02;;
22166;SDS011;11249;52.468;13.776;2023-04-01T20:50:38;19.73;;;11.55;;
22166;SDS011;11249;52.468;13.776;2023-04-01T20:53:22;17.02;;;10.60;;
22166;SDS011;11249;52.468;13.776;2023-04-01T21:07:54;16.80;;;9.10;;
22166;SDS011;11249;52.468;13.776;2023-04-01T21:10:37;11.95;;;7.43;;
22166;SDS011;11249;52.468;13.776;2023-04-01T21:13:37;13.93;;;8.88;;
22166;SDS011;11249;52.468;13.776;2023-04-01T21:16:29;15.57;;;8.75;;
22166;SDS011;11249;52.468;13.776;2023-04-01T21:25:20;15.10;;;8.32;;
22166;SDS011;11249;52.468;13.776;2023-04-01T21:39:22;20.98;;;10.18;;
22166;SDS011;11249;52.468;13.776;2023-04-01T21:44:57;14.13;;;7.60;;
22166;SDS011;11249;52.468;13.776;2023-04-01T21:47:47;17.90;;;8.35;;
22166;SDS011;11249;52.468;13.776;2023-04-01T21:56:16;14.98;;;8.50;;
22166;SDS011;11249;52.468;13.776;2023-04-01T22:02:01;11.18;;;7.05;;
22166;SDS011;11249;52.468;13.776;2023-04-01T22:07:29;15.18;;;6.60;;
22166;SDS011;11249;52.468;13.776;2023-04-01T22:10:11;11.80;;;6.18;;
22166;SDS011;11249;52.468;13.776;2023-04-01T22:12:59;12.27;;;5.78;;
22166;SDS011;11249;52.468;13.776;2023-04-01T22:18:33;7.97;;;5.03;;
22166;SDS011;11249;52.468;13.776;2023-04-01T22:21:10;8.25;;;4.90;;
22166;SDS011;11249;52.468;13.776;2023-04-01T22:23:51;7.18;;;5.10;;
22166;SDS011;11249;52.468;13.776;2023-04-01T22:26:53;10.68;;;5.03;;
22166;SDS011;11249;52.468;13.776;2023-04-01T22:32:49;10.90;;;6.25;;
22166;SDS011;11249;52.468;13.776;2023-04-01T22:35:23;14.10;;;5.50;;